Farmers, Nebraska
Current Conditions -  °F | °C
As of 8:55 AM on Friday 19 Dec 2014 (Local Time) from KHDE Reporting Station
Moderate Fog Moderate Fog  
Wind Chill: 21°   Ceiling: 200
Heat Index: 28°   Visibility: 0.25mi
Dew Point: 26°   Wind: 6mph
Humidity: 96%   Direction: 220°SW
Pressure: 30.13"   Gusts: NA
Location:  40.1338°N, 99.0101°W
Report Text: KHDE 191455Z AUTO 22005KT 1/4SM FZFG OVC002 M02/M03 A3013 RMK AO2 T10251031
Loading
Personal Weather Stations






























Interactive Weather Map New forecast layout! Learn more

10-Day Weather Forecast

Advertisements
Track Severe Weather on mobile